createdAt,value
2017-01-12T00:00:17.224Z,1006.98
2017-01-12T00:01:25.909Z,1007.02
2017-01-12T00:02:34.564Z,1006.94
2017-01-12T00:03:43.218Z,1006.96
2017-01-12T00:04:51.874Z,1007.02
2017-01-12T00:06:00.526Z,1006.98
2017-01-12T00:07:09.181Z,1007
2017-01-12T00:08:17.839Z,1006.98
2017-01-12T00:09:26.500Z,1006.93
2017-01-12T00:10:35.157Z,1006.97
2017-01-12T00:11:43.823Z,1006.87
2017-01-12T00:12:52.484Z,1006.97
2017-01-12T00:14:01.135Z,1006.91
2017-01-12T00:15:09.790Z,1006.92
2017-01-12T00:16:18.446Z,1006.91
2017-01-12T00:17:27.104Z,1006.97
2017-01-12T00:18:35.759Z,1006.91
2017-01-12T00:19:44.413Z,1006.95
2017-01-12T00:20:53.071Z,1006.9
2017-01-12T00:22:01.724Z,1006.88
2017-01-12T00:23:10.423Z,1006.86
2017-01-12T00:24:19.080Z,1006.91
2017-01-12T00:25:27.741Z,1006.88
2017-01-12T00:26:36.395Z,1006.93
2017-01-12T00:27:45.071Z,1006.9
2017-01-12T00:28:53.730Z,1006.9
2017-01-12T00:30:02.380Z,1006.91
2017-01-12T00:31:11.038Z,1006.92
2017-01-12T00:32:19.695Z,1006.94
2017-01-12T00:33:28.355Z,1006.93
2017-01-12T00:34:37.008Z,1006.86
2017-01-12T00:35:45.660Z,1006.93
2017-01-12T00:36:54.315Z,1006.95
2017-01-12T00:38:02.970Z,1006.91
2017-01-12T00:39:11.626Z,1006.91
2017-01-12T00:40:20.283Z,1006.9
2017-01-12T00:41:28.936Z,1006.96
2017-01-12T00:42:37.590Z,1007.01
2017-01-12T00:43:46.249Z,1006.96
2017-01-12T00:44:54.902Z,1007.01
2017-01-12T00:46:03.564Z,1006.95
2017-01-12T00:47:12.221Z,1007.02
2017-01-12T00:48:20.882Z,1007.11
2017-01-12T00:49:29.539Z,1007.1
2017-01-12T00:50:38.191Z,1007.1
2017-01-12T00:51:46.855Z,1007.06
2017-01-12T00:52:55.511Z,1007.09
2017-01-12T00:54:04.166Z,1007.1
2017-01-12T00:55:12.819Z,1007.13
2017-01-12T00:56:21.476Z,1007.14
2017-01-12T00:57:30.133Z,1007.07
2017-01-12T00:58:38.795Z,1007.14
2017-01-12T00:59:47.444Z,1007.16
2017-01-12T01:00:56.099Z,1007.16
2017-01-12T01:02:04.756Z,1007.11
2017-01-12T01:03:13.409Z,1007.16
2017-01-12T01:04:22.063Z,1007.17
2017-01-12T01:05:30.720Z,1007.17
2017-01-12T01:06:39.377Z,1007.15
2017-01-12T01:07:48.036Z,1007.2
2017-01-12T01:08:56.687Z,1007.23
2017-01-12T01:10:05.346Z,1007.14
2017-01-12T01:11:14.004Z,1007.2
2017-01-12T01:12:22.660Z,1007.21
2017-01-12T01:13:31.329Z,1007.21
2017-01-12T01:14:39.988Z,1007.2
2017-01-12T01:15:48.640Z,1007.2
2017-01-12T01:16:57.296Z,1007.22
2017-01-12T01:18:05.950Z,1007.19
2017-01-12T01:19:14.606Z,1007.17
2017-01-12T01:20:23.272Z,1007.14
2017-01-12T01:21:32.316Z,1007.15
2017-01-12T01:22:40.987Z,1007.15
2017-01-12T01:23:49.647Z,1007.22
2017-01-12T01:24:58.298Z,1007.25
2017-01-12T01:26:06.952Z,1007.25
2017-01-12T01:27:15.607Z,1007.24
2017-01-12T01:28:24.270Z,1007.25
2017-01-12T01:29:32.931Z,1007.28
2017-01-12T01:30:41.594Z,1007.28
2017-01-12T01:31:50.246Z,1007.38
2017-01-12T01:32:58.899Z,1007.37
2017-01-12T01:34:07.550Z,1007.36
2017-01-12T01:35:16.202Z,1007.38
2017-01-12T01:36:24.854Z,1007.37
2017-01-12T01:37:33.514Z,1007.38
2017-01-12T01:38:42.169Z,1007.37
2017-01-12T01:39:50.829Z,1007.37
2017-01-12T01:40:59.484Z,1007.38
2017-01-12T01:42:08.138Z,1007.4
2017-01-12T01:43:16.793Z,1007.35
2017-01-12T01:44:25.448Z,1007.47
2017-01-12T01:45:34.105Z,1007.44
2017-01-12T01:46:42.759Z,1007.43
2017-01-12T01:47:51.410Z,1007.38
2017-01-12T01:49:00.070Z,1007.44
2017-01-12T01:50:08.734Z,1007.35
2017-01-12T01:51:17.387Z,1007.35
2017-01-12T01:52:26.044Z,1007.4
2017-01-12T01:53:34.700Z,1007.38
2017-01-12T01:54:43.371Z,1007.36
2017-01-12T01:55:52.032Z,1007.4
2017-01-12T01:57:00.682Z,1007.33
2017-01-12T01:58:09.343Z,1007.34
2017-01-12T01:59:18.026Z,1007.36
2017-01-12T02:00:26.708Z,1007.38
2017-01-12T02:01:35.367Z,1007.39
2017-01-12T02:02:44.027Z,1007.39
2017-01-12T02:03:52.688Z,1007.44
2017-01-12T02:05:01.348Z,1007.34
2017-01-12T02:06:10.000Z,1007.34
2017-01-12T02:07:18.652Z,1007.39
2017-01-12T02:08:27.306Z,1007.32
2017-01-12T02:09:35.964Z,1007.26
2017-01-12T02:10:44.624Z,1007.41
2017-01-12T02:11:53.282Z,1007.39
2017-01-12T02:13:01.934Z,1007.46
2017-01-12T02:14:10.596Z,1007.43
2017-01-12T02:15:19.258Z,1007.43
2017-01-12T02:16:27.915Z,1007.43
2017-01-12T02:17:36.573Z,1007.44
2017-01-12T02:18:45.229Z,1007.43
2017-01-12T02:19:53.884Z,1007.39
2017-01-12T02:21:02.541Z,1007.45
2017-01-12T02:22:11.198Z,1007.42
2017-01-12T02:23:19.855Z,1007.47
2017-01-12T02:24:28.510Z,1007.43
2017-01-12T02:25:37.169Z,1007.49
2017-01-12T02:26:45.826Z,1007.47
2017-01-12T02:27:54.509Z,1007.48
2017-01-12T02:29:03.172Z,1007.52
2017-01-12T02:30:11.827Z,1007.47
2017-01-12T02:31:20.481Z,1007.44
2017-01-12T02:32:29.136Z,1007.48
2017-01-12T02:33:37.787Z,1007.51
2017-01-12T02:34:46.441Z,1007.44
2017-01-12T02:35:55.093Z,1007.46
2017-01-12T02:37:03.750Z,1007.46
2017-01-12T02:38:12.404Z,1007.43
2017-01-12T02:39:21.065Z,1007.47
2017-01-12T02:40:29.718Z,1007.48
2017-01-12T02:41:38.373Z,1007.45
2017-01-12T02:42:47.032Z,1007.44
2017-01-12T02:43:55.686Z,1007.44
2017-01-12T02:45:04.373Z,1007.4
2017-01-12T02:46:13.031Z,1007.52
2017-01-12T02:47:21.691Z,1007.56
2017-01-12T02:48:30.348Z,1007.47
2017-01-12T02:49:39.001Z,1007.57
2017-01-12T02:50:47.655Z,1007.6
2017-01-12T02:51:56.310Z,1007.57
2017-01-12T02:53:04.972Z,1007.59
2017-01-12T02:54:13.632Z,1007.58
2017-01-12T02:55:22.287Z,1007.55
2017-01-12T02:56:30.977Z,1007.58
2017-01-12T02:57:39.633Z,1007.57
2017-01-12T02:58:48.289Z,1007.52
2017-01-12T02:59:56.944Z,1007.49
2017-01-12T03:01:05.991Z,1007.54
2017-01-12T03:02:15.030Z,1007.51
2017-01-12T03:03:23.687Z,1007.5
2017-01-12T03:04:32.347Z,1007.53
2017-01-12T03:05:41.006Z,1007.55
2017-01-12T03:06:49.665Z,1007.55
2017-01-12T03:07:58.319Z,1007.52
2017-01-12T03:09:06.989Z,1007.48
2017-01-12T03:10:15.680Z,1007.49
2017-01-12T03:11:24.333Z,1007.52
2017-01-12T03:12:32.996Z,1007.47
2017-01-12T03:13:41.650Z,1007.42
2017-01-12T03:14:50.302Z,1007.47
2017-01-12T03:15:58.960Z,1007.5
2017-01-12T03:17:07.611Z,1007.52
2017-01-12T03:18:16.273Z,1007.54
2017-01-12T03:19:24.929Z,1007.54
2017-01-12T03:20:33.590Z,1007.56
2017-01-12T03:21:42.246Z,1007.58
2017-01-12T03:22:50.904Z,1007.58
2017-01-12T03:23:59.568Z,1007.55
2017-01-12T03:25:08.222Z,1007.55
2017-01-12T03:26:16.875Z,1007.57
2017-01-12T03:27:25.560Z,1007.6
2017-01-12T03:28:34.242Z,1007.61
2017-01-12T03:29:42.903Z,1007.52
2017-01-12T03:30:51.564Z,1007.51
2017-01-12T03:32:00.222Z,1007.57
2017-01-12T03:33:08.882Z,1007.54
2017-01-12T03:34:17.538Z,1007.45
2017-01-12T03:35:26.192Z,1007.48
2017-01-12T03:36:34.841Z,1007.49
2017-01-12T03:37:43.498Z,1007.44
2017-01-12T03:38:52.154Z,1007.5
2017-01-12T03:40:00.810Z,1007.46
2017-01-12T03:41:09.469Z,1007.55
2017-01-12T03:42:18.129Z,1007.52
2017-01-12T03:43:26.786Z,1007.57
2017-01-12T03:44:35.444Z,1007.57
2017-01-12T03:45:44.096Z,1007.54
2017-01-12T03:46:52.754Z,1007.6
2017-01-12T03:48:01.408Z,1007.56
2017-01-12T03:49:10.068Z,1007.59
2017-01-12T03:50:18.726Z,1007.57
2017-01-12T03:51:27.386Z,1007.62
2017-01-12T03:52:36.040Z,1007.59
2017-01-12T03:53:44.702Z,1007.55
2017-01-12T03:54:53.361Z,1007.39
2017-01-12T03:56:02.021Z,1007.48
2017-01-12T03:57:10.678Z,1007.51
2017-01-12T03:58:19.338Z,1007.49
2017-01-12T03:59:27.999Z,1007.43
2017-01-12T04:00:36.655Z,1007.5
2017-01-12T04:01:45.312Z,1007.48
2017-01-12T04:02:53.979Z,1007.52
2017-01-12T04:04:02.640Z,1007.46
2017-01-12T04:05:11.295Z,1007.56
2017-01-12T04:06:19.947Z,1007.47
2017-01-12T04:07:28.629Z,1007.51
2017-01-12T04:08:37.285Z,1007.48
2017-01-12T04:09:45.938Z,1007.46
2017-01-12T04:10:54.594Z,1007.46
2017-01-12T04:12:03.252Z,1007.48
2017-01-12T04:13:11.911Z,1007.48
2017-01-12T04:14:20.568Z,1007.53
2017-01-12T04:15:29.223Z,1007.46
2017-01-12T04:16:37.911Z,1007.41
2017-01-12T04:17:46.569Z,1007.37
2017-01-12T04:18:55.222Z,1007.34
2017-01-12T04:20:03.920Z,1007.38
2017-01-12T04:21:12.962Z,1007.31
2017-01-12T04:22:21.620Z,1007.33
2017-01-12T04:23:30.286Z,1007.34
2017-01-12T04:24:38.950Z,1007.31
2017-01-12T04:25:47.610Z,1007.32
2017-01-12T04:26:56.268Z,1007.3
2017-01-12T04:28:04.924Z,1007.32
2017-01-12T04:29:13.582Z,1007.29
2017-01-12T04:30:22.243Z,1007.4
2017-01-12T04:31:30.900Z,1007.32
2017-01-12T04:32:39.558Z,1007.29
2017-01-12T04:33:48.259Z,1007.34
2017-01-12T04:34:56.922Z,1007.26
2017-01-12T04:36:05.578Z,1007.28
2017-01-12T04:37:14.231Z,1007.22
2017-01-12T04:38:22.891Z,1007.18
2017-01-12T04:39:31.544Z,1007.28
2017-01-12T04:40:40.215Z,1007.35
2017-01-12T04:41:48.868Z,1007.31
2017-01-12T04:42:57.520Z,1007.34
2017-01-12T04:44:06.174Z,1007.28
2017-01-12T04:45:14.857Z,1007.23
2017-01-12T04:46:23.513Z,1007.19
2017-01-12T04:47:32.171Z,1007.13
2017-01-12T04:48:40.827Z,1007.14
2017-01-12T04:49:49.479Z,1007.11
2017-01-12T04:50:58.136Z,1007.1
2017-01-12T04:52:06.798Z,1007.1
2017-01-12T04:53:15.460Z,1007.14
2017-01-12T04:54:24.120Z,1007.15
2017-01-12T04:55:32.778Z,1007.14
2017-01-12T04:56:41.433Z,1007.14
2017-01-12T04:57:50.087Z,1007.16
2017-01-12T04:58:58.740Z,1007.16
2017-01-12T05:00:07.396Z,1007.22
2017-01-12T05:01:16.048Z,1007.21
2017-01-12T05:02:24.707Z,1007.27
2017-01-12T05:03:33.362Z,1007.31
2017-01-12T05:04:42.015Z,1007.27
2017-01-12T05:05:50.672Z,1007.28
2017-01-12T05:06:59.332Z,1007.29
2017-01-12T05:08:07.982Z,1007.21
2017-01-12T05:09:16.636Z,1007.19
2017-01-12T05:10:25.290Z,1007.16
2017-01-12T05:11:33.947Z,1007.15
2017-01-12T05:12:42.607Z,1007.18
2017-01-12T05:13:51.262Z,1007.23
2017-01-12T05:14:59.916Z,1007.23
2017-01-12T05:16:08.573Z,1007.15
2017-01-12T05:17:17.236Z,1007.23
2017-01-12T05:18:25.924Z,1007.13
2017-01-12T05:19:34.582Z,1007.16
2017-01-12T05:20:43.240Z,1007.12
2017-01-12T05:21:51.904Z,1007.14
2017-01-12T05:23:00.564Z,1007.17
2017-01-12T05:24:09.216Z,1007.25
2017-01-12T05:25:17.883Z,1007.13
2017-01-12T05:26:26.540Z,1007.17
2017-01-12T05:27:35.193Z,1007.09
2017-01-12T05:28:43.843Z,1007.12
2017-01-12T05:29:52.497Z,1007.04
2017-01-12T05:31:01.156Z,1007.09
2017-01-12T05:32:09.814Z,1007.09
2017-01-12T05:33:18.471Z,1007.12
2017-01-12T05:34:27.133Z,1007.18
2017-01-12T05:35:35.787Z,1007.13
2017-01-12T05:36:44.442Z,1007.17
2017-01-12T05:37:53.097Z,1007.21
2017-01-12T05:39:01.788Z,1007.15
2017-01-12T05:40:10.444Z,1007.07
2017-01-12T05:41:19.107Z,1007.03
2017-01-12T05:42:27.765Z,1007.07
2017-01-12T05:43:36.419Z,1007.03
2017-01-12T05:44:45.076Z,1007.03
2017-01-12T05:45:53.735Z,1007.04
2017-01-12T05:47:02.393Z,1007.04
2017-01-12T05:48:11.063Z,1007.01
2017-01-12T05:49:19.719Z,1006.99
2017-01-12T05:50:28.378Z,1007.03
2017-01-12T05:51:37.039Z,1007.03
2017-01-12T05:52:45.699Z,1007.01
2017-01-12T05:53:54.736Z,1006.94
2017-01-12T05:55:03.387Z,1006.96
2017-01-12T05:56:12.040Z,1007.02
2017-01-12T05:57:20.694Z,1006.91
2017-01-12T05:58:29.348Z,1006.92
2017-01-12T05:59:38.008Z,1006.91
2017-01-12T06:00:46.662Z,1006.95
2017-01-12T06:01:55.350Z,1007.02
2017-01-12T06:03:04.006Z,1006.99
2017-01-12T06:04:12.661Z,1007.07
2017-01-12T06:05:21.322Z,1006.97
2017-01-12T06:06:29.977Z,1006.95
2017-01-12T06:07:38.661Z,1007.01
2017-01-12T06:08:47.321Z,1007.02
2017-01-12T06:09:55.987Z,1007.07
2017-01-12T06:11:04.644Z,1007.03
2017-01-12T06:12:13.295Z,1007.04
2017-01-12T06:13:21.954Z,1006.99
2017-01-12T06:14:30.613Z,1007
2017-01-12T06:15:39.297Z,1007.03
2017-01-12T06:16:47.951Z,1007.03
2017-01-12T06:17:56.604Z,1007.03
2017-01-12T06:19:05.263Z,1007.01
2017-01-12T06:20:13.927Z,1007.01
2017-01-12T06:21:22.591Z,1007.07
2017-01-12T06:22:31.247Z,1007.08
2017-01-12T06:23:39.921Z,1007.08
2017-01-12T06:24:48.573Z,1007.1
2017-01-12T06:25:57.236Z,1007.02
2017-01-12T06:27:05.892Z,1007.14
2017-01-12T06:28:14.543Z,1007.12
2017-01-12T06:29:23.204Z,1007.15
2017-01-12T06:30:31.859Z,1007.11
2017-01-12T06:31:40.514Z,1007.14
2017-01-12T06:32:49.178Z,1006.98
2017-01-12T06:33:57.839Z,1007.04
2017-01-12T06:35:06.493Z,1007.05
2017-01-12T06:36:15.146Z,1007.01
2017-01-12T06:37:23.807Z,1007.04
2017-01-12T06:38:32.465Z,1007.11
2017-01-12T06:39:41.123Z,1007.12
2017-01-12T06:40:49.783Z,1007.05
2017-01-12T06:41:58.437Z,1007.14
2017-01-12T06:43:07.092Z,1007.08
2017-01-12T06:44:15.746Z,1007.12
2017-01-12T06:45:24.403Z,1007.17
2017-01-12T06:46:33.059Z,1007.12
2017-01-12T06:47:41.719Z,1007.07
2017-01-12T06:48:50.374Z,1007.04
2017-01-12T06:49:59.037Z,1007
2017-01-12T06:51:07.694Z,1007.02
2017-01-12T06:52:16.343Z,1007
2017-01-12T06:53:24.997Z,1006.99
2017-01-12T06:54:33.656Z,1007
2017-01-12T06:55:42.313Z,1006.9
2017-01-12T06:56:50.973Z,1007
2017-01-12T06:57:59.628Z,1006.94
2017-01-12T06:59:08.283Z,1006.97
2017-01-12T07:00:16.943Z,1006.94
2017-01-12T07:01:25.610Z,1006.93
2017-01-12T07:02:34.273Z,1006.9
2017-01-12T07:03:42.930Z,1006.96
2017-01-12T07:04:51.584Z,1006.94
2017-01-12T07:06:00.239Z,1006.9
2017-01-12T07:07:08.893Z,1006.93
2017-01-12T07:08:17.544Z,1006.88
2017-01-12T07:09:26.202Z,1006.94
2017-01-12T07:10:34.861Z,1006.91
2017-01-12T07:11:43.514Z,1006.91
2017-01-12T07:12:52.170Z,1006.88
2017-01-12T07:14:00.834Z,1006.91
2017-01-12T07:15:09.493Z,1006.93
2017-01-12T07:16:18.148Z,1006.95
2017-01-12T07:17:26.802Z,1006.97
2017-01-12T07:18:35.464Z,1006.95
2017-01-12T07:19:44.119Z,1006.84
2017-01-12T07:20:52.772Z,1006.85
2017-01-12T07:22:01.426Z,1006.88
2017-01-12T07:23:10.083Z,1006.89
2017-01-12T07:24:18.749Z,1006.9
2017-01-12T07:25:27.402Z,1006.78
2017-01-12T07:26:36.054Z,1006.78
2017-01-12T07:27:44.709Z,1006.85
2017-01-12T07:28:53.373Z,1006.86
2017-01-12T07:30:02.032Z,1006.83
2017-01-12T07:31:10.687Z,1006.86
2017-01-12T07:32:19.356Z,1006.89
2017-01-12T07:33:28.015Z,1006.91
2017-01-12T07:34:36.666Z,1006.92
2017-01-12T07:35:45.324Z,1006.97
2017-01-12T07:36:54.002Z,1006.96
2017-01-12T07:38:02.664Z,1006.95
2017-01-12T07:39:11.327Z,1006.96
2017-01-12T07:40:19.976Z,1006.96
2017-01-12T07:41:28.655Z,1006.97
2017-01-12T07:42:37.309Z,1007.01
2017-01-12T07:43:45.963Z,1006.98
2017-01-12T07:44:54.616Z,1006.98
2017-01-12T07:46:03.287Z,1006.93
2017-01-12T07:47:11.941Z,1006.93
2017-01-12T07:48:20.597Z,1006.88
2017-01-12T07:49:29.254Z,1006.9
2017-01-12T07:50:37.908Z,1006.93
2017-01-12T07:51:46.561Z,1006.93
2017-01-12T07:52:55.218Z,1006.94
2017-01-12T07:54:03.878Z,1006.94
2017-01-12T07:55:12.540Z,1006.94
2017-01-12T07:56:21.588Z,1006.95
2017-01-12T07:57:30.252Z,1006.99
2017-01-12T07:58:38.907Z,1006.92
2017-01-12T07:59:47.567Z,1006.91
2017-01-12T08:00:56.251Z,1006.89
2017-01-12T08:02:04.918Z,1006.84
2017-01-12T08:03:13.607Z,1006.87
2017-01-12T08:04:22.260Z,1006.82
2017-01-12T08:05:30.921Z,1006.91
2017-01-12T08:06:39.582Z,1006.94
2017-01-12T08:07:48.244Z,1006.92
2017-01-12T08:08:56.900Z,1006.92
2017-01-12T08:10:05.556Z,1006.98
2017-01-12T08:11:14.211Z,1006.95
2017-01-12T08:12:22.875Z,1007.1
2017-01-12T08:13:31.535Z,1006.97
2017-01-12T08:14:40.190Z,1007.1
2017-01-12T08:15:48.851Z,1007.1
2017-01-12T08:16:57.521Z,1007.14
2017-01-12T08:18:06.190Z,1007.14
2017-01-12T08:19:14.849Z,1007.18
2017-01-12T08:20:23.531Z,1007.21
2017-01-12T08:21:32.201Z,1007.23
2017-01-12T08:22:40.863Z,1007.25
2017-01-12T08:23:49.514Z,1007.32
2017-01-12T08:24:58.176Z,1007.24
2017-01-12T08:26:06.836Z,1007.31
2017-01-12T08:27:15.495Z,1007.27
2017-01-12T08:28:24.151Z,1007.34
2017-01-12T08:29:32.810Z,1007.33
2017-01-12T08:30:41.465Z,1007.34
2017-01-12T08:31:50.123Z,1007.4
2017-01-12T08:32:58.782Z,1007.38
2017-01-12T08:34:07.441Z,1007.42
2017-01-12T08:35:16.100Z,1007.42
2017-01-12T08:36:24.755Z,1007.45
2017-01-12T08:37:33.415Z,1007.43
2017-01-12T08:38:42.074Z,1007.45
2017-01-12T08:39:50.744Z,1007.46
2017-01-12T08:40:59.404Z,1007.46
2017-01-12T08:42:08.063Z,1007.41
2017-01-12T08:43:16.725Z,1007.44
2017-01-12T08:44:25.384Z,1007.44
2017-01-12T08:45:34.041Z,1007.43
2017-01-12T08:46:42.696Z,1007.4
2017-01-12T08:47:51.354Z,1007.42
2017-01-12T08:49:00.015Z,1007.36
2017-01-12T08:50:08.675Z,1007.34
2017-01-12T08:51:17.332Z,1007.35
2017-01-12T08:52:25.991Z,1007.32
2017-01-12T08:53:34.648Z,1007.33
2017-01-12T08:54:43.312Z,1007.29
2017-01-12T08:55:51.970Z,1007.3
2017-01-12T08:57:00.639Z,1007.27
2017-01-12T08:58:09.299Z,1007.24
2017-01-12T08:59:17.959Z,1007.25
2017-01-12T09:00:26.626Z,1007.23
2017-01-12T09:01:35.288Z,1007.24
2017-01-12T09:02:43.949Z,1007.15
2017-01-12T09:03:52.601Z,1007.14
2017-01-12T09:05:01.258Z,1007.1
2017-01-12T09:06:09.917Z,1007.19
2017-01-12T09:07:18.580Z,1007.15
2017-01-12T09:08:27.242Z,1007.11
2017-01-12T09:09:35.900Z,1007.09
2017-01-12T09:10:44.556Z,1007.13
2017-01-12T09:11:53.216Z,1007.09
2017-01-12T09:13:01.875Z,1007.14
2017-01-12T09:14:10.530Z,1007.14
2017-01-12T09:15:19.579Z,1007.12
2017-01-12T09:16:28.241Z,1007.12
2017-01-12T09:17:36.898Z,1007.12
2017-01-12T09:18:45.561Z,1007.09
2017-01-12T09:19:54.219Z,1007.06
2017-01-12T09:21:02.879Z,1007.09
2017-01-12T09:22:11.539Z,1007.05
2017-01-12T09:23:20.198Z,1007.09
2017-01-12T09:24:28.852Z,1007.08
2017-01-12T09:25:37.512Z,1007.09
2017-01-12T09:26:46.167Z,1007.13
2017-01-12T09:27:54.826Z,1007.13
2017-01-12T09:29:03.483Z,1007.1
2017-01-12T09:30:12.146Z,1007.03
2017-01-12T09:31:20.813Z,1007.12
2017-01-12T09:32:29.475Z,1007.11
2017-01-12T09:33:38.146Z,1007.19
2017-01-12T09:34:46.806Z,1007.19
2017-01-12T09:35:55.472Z,1007.16
2017-01-12T09:37:04.137Z,1007.21
2017-01-12T09:38:12.796Z,1007.15
2017-01-12T09:39:21.456Z,1007.21
2017-01-12T09:40:30.112Z,1007.24
2017-01-12T09:41:38.776Z,1007.25
2017-01-12T09:42:47.435Z,1007.21
2017-01-12T09:43:56.093Z,1007.21
2017-01-12T09:45:04.756Z,1007.18
2017-01-12T09:46:13.416Z,1007.24
2017-01-12T09:47:22.084Z,1007.25
2017-01-12T09:48:30.742Z,1007.29
2017-01-12T09:49:39.403Z,1007.28
2017-01-12T09:50:48.064Z,1007.21
2017-01-12T09:51:56.720Z,1007.23
2017-01-12T09:53:05.381Z,1007.31
2017-01-12T09:54:14.046Z,1007.29
2017-01-12T09:55:22.710Z,1007.29
2017-01-12T09:56:31.371Z,1007.25
2017-01-12T09:57:40.064Z,1007.33
2017-01-12T09:58:48.721Z,1007.34
2017-01-12T09:59:57.387Z,1007.38
2017-01-12T10:01:06.047Z,1007.31
2017-01-12T10:02:14.711Z,1007.29
2017-01-12T10:03:23.401Z,1007.3
2017-01-12T10:04:32.060Z,1007.26
2017-01-12T10:05:40.728Z,1007.26
2017-01-12T10:06:49.396Z,1007.24
2017-01-12T10:07:58.050Z,1007.25
2017-01-12T10:09:06.711Z,1007.19
2017-01-12T10:10:15.376Z,1007.19
2017-01-12T10:11:24.041Z,1007.23
2017-01-12T10:12:32.698Z,1007.11
2017-01-12T10:13:41.392Z,1007.11
2017-01-12T10:14:50.048Z,1007.11
2017-01-12T10:15:59.631Z,1007.11
2017-01-12T10:17:08.293Z,1007.09
2017-01-12T10:18:16.960Z,1007.08
2017-01-12T10:19:25.619Z,1006.99
2017-01-12T10:20:34.276Z,1006.98
2017-01-12T10:21:42.930Z,1006.94
2017-01-12T10:22:51.599Z,1006.95
2017-01-12T10:24:00.260Z,1006.91
2017-01-12T10:25:08.919Z,1006.83
2017-01-12T10:26:17.582Z,1006.88
2017-01-12T10:27:26.247Z,1006.8
2017-01-12T10:28:34.917Z,1006.79
2017-01-12T10:29:43.601Z,1006.85
2017-01-12T10:30:52.259Z,1006.84
2017-01-12T10:32:00.924Z,1006.84
2017-01-12T10:33:09.587Z,1006.67
2017-01-12T10:34:18.262Z,1006.7
2017-01-12T10:35:26.922Z,1006.69
2017-01-12T10:36:35.588Z,1006.65
2017-01-12T10:37:44.244Z,1006.6
2017-01-12T10:38:52.900Z,1006.64
2017-01-12T10:40:01.940Z,1006.62
2017-01-12T10:41:10.636Z,1006.58
2017-01-12T10:42:19.301Z,1006.58
2017-01-12T10:43:27.955Z,1006.44
2017-01-12T10:44:36.617Z,1006.43
2017-01-12T10:45:45.274Z,1006.45
2017-01-12T10:46:53.938Z,1006.39
2017-01-12T10:48:02.596Z,1006.42
2017-01-12T10:49:11.256Z,1006.45
2017-01-12T10:50:19.911Z,1006.47
2017-01-12T10:51:28.573Z,1006.39
2017-01-12T10:52:37.239Z,1006.35
2017-01-12T10:53:45.908Z,1006.37
2017-01-12T10:54:54.567Z,1006.38
2017-01-12T10:56:03.232Z,1006.33
2017-01-12T10:57:11.895Z,1006.27
2017-01-12T10:58:20.567Z,1006.26
2017-01-12T10:59:29.227Z,1006.34
2017-01-12T11:00:37.889Z,1006.23
2017-01-12T11:01:46.552Z,1006.26
2017-01-12T11:02:55.214Z,1006.22
2017-01-12T11:04:03.874Z,1006.11
2017-01-12T11:05:12.529Z,1006.12
2017-01-12T11:06:21.189Z,1006.18
2017-01-12T11:07:29.849Z,1006.2
2017-01-12T11:08:38.516Z,1006.18
2017-01-12T11:09:47.175Z,1006.11
2017-01-12T11:10:55.835Z,1006.06
2017-01-12T11:12:04.497Z,1006.08
2017-01-12T11:13:13.165Z,1005.95
2017-01-12T11:14:21.835Z,1006.04
2017-01-12T11:15:30.489Z,1006.05
2017-01-12T11:16:39.158Z,1005.98
2017-01-12T11:17:47.824Z,1006.01
2017-01-12T11:18:56.482Z,1005.95
2017-01-12T11:20:05.142Z,1005.95
2017-01-12T11:21:13.805Z,1005.86
2017-01-12T11:22:22.465Z,1005.91
2017-01-12T11:23:31.126Z,1005.9
2017-01-12T11:24:39.787Z,1005.84
2017-01-12T11:25:48.450Z,1005.81
2017-01-12T11:26:57.113Z,1005.76
2017-01-12T11:28:05.777Z,1005.79
2017-01-12T11:29:14.444Z,1005.75
2017-01-12T11:30:24.135Z,1005.74
2017-01-12T11:31:32.794Z,1005.72
2017-01-12T11:32:41.450Z,1005.71
2017-01-12T11:33:50.107Z,1005.69
2017-01-12T11:34:58.767Z,1005.67
2017-01-12T11:36:07.432Z,1005.63
2017-01-12T11:37:16.096Z,1005.58
2017-01-12T11:38:24.759Z,1005.62
2017-01-12T11:39:33.423Z,1005.63
2017-01-12T11:40:42.091Z,1005.59
2017-01-12T11:41:50.754Z,1005.53
2017-01-12T11:42:59.424Z,1005.53
2017-01-12T11:44:08.091Z,1005.56
2017-01-12T11:45:16.750Z,1005.51
2017-01-12T11:46:25.408Z,1005.48
2017-01-12T11:47:34.072Z,1005.45
2017-01-12T11:48:42.765Z,1005.46
2017-01-12T11:49:51.427Z,1005.43
2017-01-12T11:51:00.091Z,1005.36
2017-01-12T11:52:08.779Z,1005.4
2017-01-12T11:53:17.440Z,1005.38
2017-01-12T11:54:26.110Z,1005.4
2017-01-12T11:55:34.764Z,1005.34
2017-01-12T11:56:43.423Z,1005.43
2017-01-12T11:57:52.082Z,1005.41
2017-01-12T11:59:00.743Z,1005.28
2017-01-12T12:00:09.408Z,1005.33
2017-01-12T12:01:18.075Z,1005.34
2017-01-12T12:02:26.732Z,1005.3
2017-01-12T12:03:35.390Z,1005.26
2017-01-12T12:04:44.052Z,1005.23
2017-01-12T12:05:52.722Z,1005.27
2017-01-12T12:07:01.384Z,1005.2
2017-01-12T12:08:10.052Z,1005.15
2017-01-12T12:09:18.711Z,1005.02
2017-01-12T12:10:27.369Z,1005.01
2017-01-12T12:11:36.030Z,1005.05
2017-01-12T12:12:44.697Z,1005
2017-01-12T12:13:53.386Z,1004.94
2017-01-12T12:15:02.055Z,1004.84
2017-01-12T12:16:10.710Z,1004.78
2017-01-12T12:17:19.371Z,1004.71
2017-01-12T12:18:28.036Z,1004.77
2017-01-12T12:19:36.707Z,1004.72
2017-01-12T12:20:45.364Z,1004.64
2017-01-12T12:21:54.030Z,1004.64
2017-01-12T12:23:02.690Z,1004.62
2017-01-12T12:24:11.348Z,1004.68
2017-01-12T12:25:20.010Z,1004.63
2017-01-12T12:26:29.372Z,1004.62
2017-01-12T12:27:38.037Z,1004.64
2017-01-12T12:28:46.723Z,1004.62
2017-01-12T12:29:55.385Z,1004.68
2017-01-12T12:31:04.046Z,1004.68
2017-01-12T12:32:12.714Z,1004.76
2017-01-12T12:33:21.793Z,1004.74
2017-01-12T12:34:30.460Z,1004.69
2017-01-12T12:35:39.127Z,1004.6
2017-01-12T12:36:47.787Z,1004.59
2017-01-12T12:37:56.493Z,1004.55
2017-01-12T12:39:05.158Z,1004.52
2017-01-12T12:40:13.829Z,1004.47
2017-01-12T12:41:22.488Z,1004.43
2017-01-12T12:42:31.146Z,1004.31
2017-01-12T12:43:39.810Z,1004.13
2017-01-12T12:44:48.472Z,1004.1
2017-01-12T12:45:57.135Z,1004.1
2017-01-12T12:47:05.830Z,1004.08
2017-01-12T12:48:14.502Z,1004.05
2017-01-12T12:49:23.191Z,1004
2017-01-12T12:50:31.851Z,1003.89
2017-01-12T12:51:40.555Z,1003.93
2017-01-12T12:52:49.214Z,1003.85
2017-01-12T12:53:57.878Z,1003.88
2017-01-12T12:55:06.544Z,1003.88
2017-01-12T12:56:15.216Z,1003.87
2017-01-12T12:57:23.873Z,1003.78
2017-01-12T12:58:32.530Z,1003.82
2017-01-12T12:59:41.187Z,1003.82
2017-01-12T13:00:49.849Z,1003.8
2017-01-12T13:01:58.514Z,1003.78
2017-01-12T13:03:07.168Z,1003.79
2017-01-12T13:04:15.830Z,1003.77
2017-01-12T13:05:24.492Z,1003.74
2017-01-12T13:06:33.149Z,1003.77
2017-01-12T13:07:41.814Z,1003.68
2017-01-12T13:08:50.482Z,1003.64
2017-01-12T13:09:59.149Z,1003.6
2017-01-12T13:11:07.813Z,1003.62
2017-01-12T13:12:16.471Z,1003.5
2017-01-12T13:13:25.134Z,1003.51
2017-01-12T13:14:33.797Z,1003.47
2017-01-12T13:15:42.462Z,1003.42
2017-01-12T13:16:51.136Z,1003.38
2017-01-12T13:17:59.799Z,1003.38
2017-01-12T13:19:08.455Z,1003.37
2017-01-12T13:20:17.113Z,1003.27
2017-01-12T13:21:25.780Z,1003.31
2017-01-12T13:22:34.465Z,1003.24
2017-01-12T13:23:43.515Z,1003.32
2017-01-12T13:24:52.178Z,1003.24
2017-01-12T13:26:01.232Z,1003.24
2017-01-12T13:27:09.893Z,1003.18
2017-01-12T13:28:18.580Z,1003.14
2017-01-12T13:29:27.242Z,1003.11
2017-01-12T13:30:35.898Z,1003.08
2017-01-12T13:31:44.570Z,1002.97
2017-01-12T13:32:53.231Z,1003.01
2017-01-12T13:34:01.892Z,1002.94
2017-01-12T13:35:10.556Z,1002.96
2017-01-12T13:36:19.218Z,1002.91
2017-01-12T13:37:27.880Z,1002.99
2017-01-12T13:38:36.932Z,1002.88
2017-01-12T13:39:45.608Z,1002.87
2017-01-12T13:40:54.275Z,1002.81
2017-01-12T13:42:02.938Z,1002.78
2017-01-12T13:43:11.605Z,1002.78
2017-01-12T13:44:20.266Z,1002.74
2017-01-12T13:45:28.923Z,1002.71
2017-01-12T13:46:37.583Z,1002.69
2017-01-12T13:47:46.250Z,1002.61
2017-01-12T13:48:54.918Z,1002.59
2017-01-12T13:50:03.580Z,1002.63
2017-01-12T13:51:12.243Z,1002.54
2017-01-12T13:52:20.907Z,1002.56
2017-01-12T13:53:29.574Z,1002.51